sensor_id;sensor_type;location;lat;lon;timestamp;P1;durP1;ratioP1;P2;durP2;ratioP2
8544;SDS011;4310;51.054;6.994;2022-11-15T00:00:20;15.43;;;14.23;;
8544;SDS011;4310;51.054;6.994;2022-11-15T00:01:24;15.00;;;13.75;;
8544;SDS011;4310;51.054;6.994;2022-11-15T00:02:27;14.45;;;13.15;;
8544;SDS011;4310;51.054;6.994;2022-11-15T00:03:31;14.65;;;13.45;;
8544;SDS011;4310;51.054;6.994;2022-11-15T00:04:35;14.43;;;13.13;;
8544;SDS011;4310;51.054;6.994;2022-11-15T00:05:38;14.53;;;13.32;;
8544;SDS011;4310;51.054;6.994;2022-11-15T00:06:42;14.60;;;13.40;;
8544;SDS011;4310;51.054;6.994;2022-11-15T00:07:46;13.83;;;12.73;;
8544;SDS011;4310;51.054;6.994;2022-11-15T00:08:50;14.00;;;12.87;;
8544;SDS011;4310;51.054;6.994;2022-11-15T00:09:53;13.48;;;12.47;;
8544;SDS011;4310;51.054;6.994;2022-11-15T00:12:08;13.88;;;12.60;;
8544;SDS011;4310;51.054;6.994;2022-11-15T00:13:12;13.25;;;12.07;;
8544;SDS011;4310;51.054;6.994;2022-11-15T00:14:16;13.78;;;12.53;;
8544;SDS011;4310;51.054;6.994;2022-11-15T00:15:20;13.40;;;12.10;;
8544;SDS011;4310;51.054;6.994;2022-11-15T00:16:24;13.50;;;12.20;;
8544;SDS011;4310;51.054;6.994;2022-11-15T00:18:39;14.20;;;12.98;;
8544;SDS011;4310;51.054;6.994;2022-11-15T00:19:43;13.58;;;12.47;;
8544;SDS011;4310;51.054;6.994;2022-11-15T00:20:47;13.85;;;12.75;;
8544;SDS011;4310;51.054;6.994;2022-11-15T00:21:51;13.70;;;12.65;;
8544;SDS011;4310;51.054;6.994;2022-11-15T00:22:55;14.33;;;13.03;;
8544;SDS011;4310;51.054;6.994;2022-11-15T00:23:58;13.72;;;12.63;;
8544;SDS011;4310;51.054;6.994;2022-11-15T00:25:02;14.07;;;12.88;;
8544;SDS011;4310;51.054;6.994;2022-11-15T00:26:06;15.38;;;14.18;;
8544;SDS011;4310;51.054;6.994;2022-11-15T00:27:10;13.58;;;12.47;;
8544;SDS011;4310;51.054;6.994;2022-11-15T00:28:14;14.75;;;13.72;;
8544;SDS011;4310;51.054;6.994;2022-11-15T00:29:18;15.48;;;14.07;;
8544;SDS011;4310;51.054;6.994;2022-11-15T00:30:21;13.43;;;12.43;;
8544;SDS011;4310;51.054;6.994;2022-11-15T00:31:25;14.47;;;13.37;;
8544;SDS011;4310;51.054;6.994;2022-11-15T00:33:43;14.55;;;13.38;;
8544;SDS011;4310;51.054;6.994;2022-11-15T00:34:47;15.10;;;13.70;;
8544;SDS011;4310;51.054;6.994;2022-11-15T00:35:51;15.90;;;14.80;;
8544;SDS011;4310;51.054;6.994;2022-11-15T00:36:55;14.45;;;13.53;;
8544;SDS011;4310;51.054;6.994;2022-11-15T00:37:58;13.83;;;12.82;;
8544;SDS011;4310;51.054;6.994;2022-11-15T00:39:03;15.05;;;13.75;;
8544;SDS011;4310;51.054;6.994;2022-11-15T00:41:19;13.70;;;12.68;;
8544;SDS011;4310;51.054;6.994;2022-11-15T00:42:23;14.35;;;13.13;;
8544;SDS011;4310;51.054;6.994;2022-11-15T00:43:27;14.30;;;13.00;;
8544;SDS011;4310;51.054;6.994;2022-11-15T00:44:30;14.93;;;13.58;;
8544;SDS011;4310;51.054;6.994;2022-11-15T00:45:34;13.58;;;12.50;;
8544;SDS011;4310;51.054;6.994;2022-11-15T00:46:38;14.25;;;13.15;;
8544;SDS011;4310;51.054;6.994;2022-11-15T00:47:44;12.75;;;11.75;;
8544;SDS011;4310;51.054;6.994;2022-11-15T00:49:59;13.65;;;12.53;;
8544;SDS011;4310;51.054;6.994;2022-11-15T00:51:03;13.00;;;11.97;;
8544;SDS011;4310;51.054;6.994;2022-11-15T00:52:07;13.50;;;12.20;;
8544;SDS011;4310;51.054;6.994;2022-11-15T00:53:10;13.90;;;12.77;;
8544;SDS011;4310;51.054;6.994;2022-11-15T00:54:14;14.05;;;12.90;;
8544;SDS011;4310;51.054;6.994;2022-11-15T00:55:18;14.15;;;13.03;;
8544;SDS011;4310;51.054;6.994;2022-11-15T00:56:22;15.03;;;13.93;;
8544;SDS011;4310;51.054;6.994;2022-11-15T00:57:25;13.88;;;12.73;;
8544;SDS011;4310;51.054;6.994;2022-11-15T00:58:29;15.58;;;14.38;;
8544;SDS011;4310;51.054;6.994;2022-11-15T01:00:44;14.73;;;13.53;;
8544;SDS011;4310;51.054;6.994;2022-11-15T01:01:48;15.03;;;13.93;;
8544;SDS011;4310;51.054;6.994;2022-11-15T01:02:52;16.32;;;15.13;;
8544;SDS011;4310;51.054;6.994;2022-11-15T01:03:55;15.60;;;14.30;;
8544;SDS011;4310;51.054;6.994;2022-11-15T01:04:59;16.37;;;15.08;;
8544;SDS011;4310;51.054;6.994;2022-11-15T01:06:03;16.05;;;14.75;;
8544;SDS011;4310;51.054;6.994;2022-11-15T01:07:07;14.55;;;13.55;;
8544;SDS011;4310;51.054;6.994;2022-11-15T01:08:12;16.67;;;15.45;;
8544;SDS011;4310;51.054;6.994;2022-11-15T01:09:16;16.50;;;15.30;;
8544;SDS011;4310;51.054;6.994;2022-11-15T01:10:19;17.30;;;15.80;;
8544;SDS011;4310;51.054;6.994;2022-11-15T01:11:23;16.37;;;15.25;;
8544;SDS011;4310;51.054;6.994;2022-11-15T01:12:27;17.00;;;15.65;;
8544;SDS011;4310;51.054;6.994;2022-11-15T01:14:43;16.52;;;15.23;;
8544;SDS011;4310;51.054;6.994;2022-11-15T01:15:46;16.70;;;15.28;;
8544;SDS011;4310;51.054;6.994;2022-11-15T01:18:01;15.18;;;13.95;;
8544;SDS011;4310;51.054;6.994;2022-11-15T01:19:05;14.68;;;13.58;;
8544;SDS011;4310;51.054;6.994;2022-11-15T01:21:21;14.47;;;13.48;;
8544;SDS011;4310;51.054;6.994;2022-11-15T01:22:34;14.43;;;13.43;;
8544;SDS011;4310;51.054;6.994;2022-11-15T01:23:38;14.15;;;13.05;;
8544;SDS011;4310;51.054;6.994;2022-11-15T01:24:41;14.60;;;13.20;;
8544;SDS011;4310;51.054;6.994;2022-11-15T01:25:46;13.83;;;12.78;;
8544;SDS011;4310;51.054;6.994;2022-11-15T01:26:49;14.65;;;13.55;;
8544;SDS011;4310;51.054;6.994;2022-11-15T01:27:53;13.75;;;12.85;;
8544;SDS011;4310;51.054;6.994;2022-11-15T01:28:57;13.72;;;12.75;;
8544;SDS011;4310;51.054;6.994;2022-11-15T01:30:08;14.28;;;13.08;;
8544;SDS011;4310;51.054;6.994;2022-11-15T01:31:13;14.03;;;13.03;;
8544;SDS011;4310;51.054;6.994;2022-11-15T01:32:17;14.43;;;13.25;;
8544;SDS011;4310;51.054;6.994;2022-11-15T01:33:21;13.72;;;12.63;;
8544;SDS011;4310;51.054;6.994;2022-11-15T01:34:25;13.85;;;12.85;;
8544;SDS011;4310;51.054;6.994;2022-11-15T01:35:28;13.85;;;12.80;;
8544;SDS011;4310;51.054;6.994;2022-11-15T01:37:43;15.85;;;14.50;;
8544;SDS011;4310;51.054;6.994;2022-11-15T01:38:47;15.38;;;14.10;;
8544;SDS011;4310;51.054;6.994;2022-11-15T01:39:52;14.87;;;13.75;;
8544;SDS011;4310;51.054;6.994;2022-11-15T01:40:56;15.05;;;13.95;;
8544;SDS011;4310;51.054;6.994;2022-11-15T01:42:00;14.23;;;13.10;;
8544;SDS011;4310;51.054;6.994;2022-11-15T01:43:19;15.50;;;14.00;;
8544;SDS011;4310;51.054;6.994;2022-11-15T01:44:34;13.98;;;12.88;;
8544;SDS011;4310;51.054;6.994;2022-11-15T01:45:36;14.53;;;13.53;;
8544;SDS011;4310;51.054;6.994;2022-11-15T01:46:39;14.28;;;13.15;;
8544;SDS011;4310;51.054;6.994;2022-11-15T01:47:45;14.23;;;13.10;;
8544;SDS011;4310;51.054;6.994;2022-11-15T01:48:50;14.80;;;13.60;;
8544;SDS011;4310;51.054;6.994;2022-11-15T01:51:07;14.73;;;13.72;;
8544;SDS011;4310;51.054;6.994;2022-11-15T01:52:12;15.32;;;13.95;;
8544;SDS011;4310;51.054;6.994;2022-11-15T01:53:16;15.78;;;14.58;;
8544;SDS011;4310;51.054;6.994;2022-11-15T01:54:20;15.15;;;14.15;;
8544;SDS011;4310;51.054;6.994;2022-11-15T01:55:25;15.98;;;14.78;;
8544;SDS011;4310;51.054;6.994;2022-11-15T01:56:30;15.75;;;14.58;;
8544;SDS011;4310;51.054;6.994;2022-11-15T01:57:34;15.85;;;14.55;;
8544;SDS011;4310;51.054;6.994;2022-11-15T01:58:38;14.75;;;13.48;;
8544;SDS011;4310;51.054;6.994;2022-11-15T02:00:54;16.25;;;15.05;;
8544;SDS011;4310;51.054;6.994;2022-11-15T02:01:58;16.65;;;15.35;;
8544;SDS011;4310;51.054;6.994;2022-11-15T02:03:02;15.80;;;14.60;;
8544;SDS011;4310;51.054;6.994;2022-11-15T02:04:07;16.35;;;15.18;;
8544;SDS011;4310;51.054;6.994;2022-11-15T02:05:11;17.20;;;16.02;;
8544;SDS011;4310;51.054;6.994;2022-11-15T02:06:15;16.55;;;15.25;;
8544;SDS011;4310;51.054;6.994;2022-11-15T02:07:19;15.88;;;14.65;;
8544;SDS011;4310;51.054;6.994;2022-11-15T02:08:23;15.43;;;14.13;;
8544;SDS011;4310;51.054;6.994;2022-11-15T02:09:27;15.03;;;13.83;;
8544;SDS011;4310;51.054;6.994;2022-11-15T02:10:31;15.72;;;14.53;;
8544;SDS011;4310;51.054;6.994;2022-11-15T02:11:35;14.53;;;13.13;;
8544;SDS011;4310;51.054;6.994;2022-11-15T02:13:50;13.75;;;12.75;;
8544;SDS011;4310;51.054;6.994;2022-11-15T02:15:05;15.10;;;14.03;;
8544;SDS011;4310;51.054;6.994;2022-11-15T02:16:11;13.90;;;12.82;;
8544;SDS011;4310;51.054;6.994;2022-11-15T02:18:32;14.58;;;13.48;;
8544;SDS011;4310;51.054;6.994;2022-11-15T02:19:43;12.95;;;11.95;;
8544;SDS011;4310;51.054;6.994;2022-11-15T02:22:11;13.88;;;12.88;;
8544;SDS011;4310;51.054;6.994;2022-11-15T02:24:50;13.88;;;12.88;;
8544;SDS011;4310;51.054;6.994;2022-11-15T02:25:57;14.15;;;13.15;;
8544;SDS011;4310;51.054;6.994;2022-11-15T02:28:29;14.15;;;12.85;;
8544;SDS011;4310;51.054;6.994;2022-11-15T02:29:37;13.38;;;12.37;;
8544;SDS011;4310;51.054;6.994;2022-11-15T02:30:42;14.38;;;13.28;;
8544;SDS011;4310;51.054;6.994;2022-11-15T02:31:48;13.05;;;12.05;;
8544;SDS011;4310;51.054;6.994;2022-11-15T02:34:05;12.93;;;11.93;;
8544;SDS011;4310;51.054;6.994;2022-11-15T02:35:11;11.83;;;10.82;;
8544;SDS011;4310;51.054;6.994;2022-11-15T02:36:18;13.25;;;12.15;;
8544;SDS011;4310;51.054;6.994;2022-11-15T02:38:34;12.13;;;11.20;;
8544;SDS011;4310;51.054;6.994;2022-11-15T02:40:52;13.00;;;11.90;;
8544;SDS011;4310;51.054;6.994;2022-11-15T02:41:56;13.15;;;12.00;;
8544;SDS011;4310;51.054;6.994;2022-11-15T02:43:04;13.55;;;12.45;;
8544;SDS011;4310;51.054;6.994;2022-11-15T02:44:23;14.70;;;13.45;;
8544;SDS011;4310;51.054;6.994;2022-11-15T02:45:30;14.68;;;13.58;;
8544;SDS011;4310;51.054;6.994;2022-11-15T02:46:34;15.10;;;13.90;;
8544;SDS011;4310;51.054;6.994;2022-11-15T02:47:56;15.65;;;14.45;;
8544;SDS011;4310;51.054;6.994;2022-11-15T02:49:01;15.80;;;14.70;;
8544;SDS011;4310;51.054;6.994;2022-11-15T02:50:06;15.28;;;14.15;;
8544;SDS011;4310;51.054;6.994;2022-11-15T02:51:10;14.60;;;13.60;;
8544;SDS011;4310;51.054;6.994;2022-11-15T02:52:15;16.07;;;15.00;;
8544;SDS011;4310;51.054;6.994;2022-11-15T02:53:23;15.28;;;14.10;;
8544;SDS011;4310;51.054;6.994;2022-11-15T02:55:41;15.90;;;14.85;;
8544;SDS011;4310;51.054;6.994;2022-11-15T02:56:45;15.28;;;14.05;;
8544;SDS011;4310;51.054;6.994;2022-11-15T02:59:08;17.10;;;16.00;;
8544;SDS011;4310;51.054;6.994;2022-11-15T03:00:12;16.57;;;15.28;;
8544;SDS011;4310;51.054;6.994;2022-11-15T03:01:21;16.23;;;15.10;;
8544;SDS011;4310;51.054;6.994;2022-11-15T03:02:29;16.15;;;15.08;;
8544;SDS011;4310;51.054;6.994;2022-11-15T03:03:38;17.60;;;16.40;;
8544;SDS011;4310;51.054;6.994;2022-11-15T03:04:43;16.62;;;15.43;;
8544;SDS011;4310;51.054;6.994;2022-11-15T03:05:48;16.40;;;15.28;;
8544;SDS011;4310;51.054;6.994;2022-11-15T03:08:06;16.35;;;15.25;;
8544;SDS011;4310;51.054;6.994;2022-11-15T03:09:13;15.85;;;14.65;;
8544;SDS011;4310;51.054;6.994;2022-11-15T03:10:17;16.48;;;15.18;;
8544;SDS011;4310;51.054;6.994;2022-11-15T03:11:21;16.42;;;15.05;;
8544;SDS011;4310;51.054;6.994;2022-11-15T03:12:27;16.30;;;15.05;;
8544;SDS011;4310;51.054;6.994;2022-11-15T03:13:33;16.62;;;15.53;;
8544;SDS011;4310;51.054;6.994;2022-11-15T03:14:36;16.12;;;15.03;;
8544;SDS011;4310;51.054;6.994;2022-11-15T03:15:43;17.25;;;16.05;;
8544;SDS011;4310;51.054;6.994;2022-11-15T03:16:47;16.40;;;15.20;;
8544;SDS011;4310;51.054;6.994;2022-11-15T03:17:53;14.98;;;13.88;;
8544;SDS011;4310;51.054;6.994;2022-11-15T03:18:58;15.80;;;14.60;;
8544;SDS011;4310;51.054;6.994;2022-11-15T03:20:04;14.78;;;13.75;;
8544;SDS011;4310;51.054;6.994;2022-11-15T03:21:09;14.95;;;13.95;;
8544;SDS011;4310;51.054;6.994;2022-11-15T03:22:15;14.35;;;13.32;;
8544;SDS011;4310;51.054;6.994;2022-11-15T03:23:19;15.18;;;14.10;;
8544;SDS011;4310;51.054;6.994;2022-11-15T03:25:36;15.25;;;14.25;;
8544;SDS011;4310;51.054;6.994;2022-11-15T03:26:40;15.13;;;14.13;;
8544;SDS011;4310;51.054;6.994;2022-11-15T03:27:45;14.85;;;13.85;;
8544;SDS011;4310;51.054;6.994;2022-11-15T03:30:02;15.28;;;14.38;;
8544;SDS011;4310;51.054;6.994;2022-11-15T03:31:06;15.60;;;14.65;;
8544;SDS011;4310;51.054;6.994;2022-11-15T03:32:30;16.73;;;15.48;;
8544;SDS011;4310;51.054;6.994;2022-11-15T03:33:35;16.15;;;15.00;;
8544;SDS011;4310;51.054;6.994;2022-11-15T03:34:39;15.25;;;14.25;;
8544;SDS011;4310;51.054;6.994;2022-11-15T03:35:44;14.43;;;13.48;;
8544;SDS011;4310;51.054;6.994;2022-11-15T03:36:48;15.55;;;14.63;;
8544;SDS011;4310;51.054;6.994;2022-11-15T03:37:54;15.98;;;14.80;;
8544;SDS011;4310;51.054;6.994;2022-11-15T03:38:59;14.95;;;13.95;;
8544;SDS011;4310;51.054;6.994;2022-11-15T03:40:04;15.83;;;14.83;;
8544;SDS011;4310;51.054;6.994;2022-11-15T03:41:09;15.98;;;14.98;;
8544;SDS011;4310;51.054;6.994;2022-11-15T03:42:17;14.85;;;13.85;;
8544;SDS011;4310;51.054;6.994;2022-11-15T03:43:22;15.78;;;14.60;;
8544;SDS011;4310;51.054;6.994;2022-11-15T03:44:29;16.25;;;15.15;;
8544;SDS011;4310;51.054;6.994;2022-11-15T03:45:33;15.72;;;14.70;;
8544;SDS011;4310;51.054;6.994;2022-11-15T03:46:39;15.15;;;14.07;;
8544;SDS011;4310;51.054;6.994;2022-11-15T03:47:45;15.10;;;14.10;;
8544;SDS011;4310;51.054;6.994;2022-11-15T03:48:50;15.15;;;14.07;;
8544;SDS011;4310;51.054;6.994;2022-11-15T03:51:05;15.38;;;14.20;;
8544;SDS011;4310;51.054;6.994;2022-11-15T03:52:09;15.03;;;13.85;;
8544;SDS011;4310;51.054;6.994;2022-11-15T03:54:25;15.68;;;14.68;;
8544;SDS011;4310;51.054;6.994;2022-11-15T03:55:28;16.67;;;15.55;;
8544;SDS011;4310;51.054;6.994;2022-11-15T03:56:34;16.70;;;15.65;;
8544;SDS011;4310;51.054;6.994;2022-11-15T03:57:37;17.02;;;15.80;;
8544;SDS011;4310;51.054;6.994;2022-11-15T03:58:41;16.07;;;15.08;;
8544;SDS011;4310;51.054;6.994;2022-11-15T03:59:45;16.25;;;15.35;;
8544;SDS011;4310;51.054;6.994;2022-11-15T04:00:49;16.37;;;15.07;;
8544;SDS011;4310;51.054;6.994;2022-11-15T04:01:53;17.60;;;16.50;;
8544;SDS011;4310;51.054;6.994;2022-11-15T04:02:56;17.70;;;16.55;;
8544;SDS011;4310;51.054;6.994;2022-11-15T04:04:00;17.52;;;16.32;;
8544;SDS011;4310;51.054;6.994;2022-11-15T04:05:04;16.60;;;15.40;;
8544;SDS011;4310;51.054;6.994;2022-11-15T04:06:08;17.05;;;15.93;;
8544;SDS011;4310;51.054;6.994;2022-11-15T04:07:12;15.80;;;14.73;;
8544;SDS011;4310;51.054;6.994;2022-11-15T04:08:15;16.20;;;15.13;;
8544;SDS011;4310;51.054;6.994;2022-11-15T04:09:19;16.30;;;15.30;;
8544;SDS011;4310;51.054;6.994;2022-11-15T04:10:23;15.40;;;14.35;;
8544;SDS011;4310;51.054;6.994;2022-11-15T04:11:26;15.75;;;14.75;;
8544;SDS011;4310;51.054;6.994;2022-11-15T04:12:30;15.55;;;14.45;;
8544;SDS011;4310;51.054;6.994;2022-11-15T04:13:34;15.43;;;14.40;;
8544;SDS011;4310;51.054;6.994;2022-11-15T04:14:38;14.55;;;13.58;;
8544;SDS011;4310;51.054;6.994;2022-11-15T04:16:55;14.25;;;13.28;;
8544;SDS011;4310;51.054;6.994;2022-11-15T04:17:58;14.78;;;13.88;;
8544;SDS011;4310;51.054;6.994;2022-11-15T04:20:14;14.47;;;13.48;;
8544;SDS011;4310;51.054;6.994;2022-11-15T04:21:36;13.70;;;12.80;;
8544;SDS011;4310;51.054;6.994;2022-11-15T04:24:26;13.48;;;12.45;;
8544;SDS011;4310;51.054;6.994;2022-11-15T04:25:29;13.90;;;12.93;;
8544;SDS011;4310;51.054;6.994;2022-11-15T04:26:33;13.70;;;12.80;;
8544;SDS011;4310;51.054;6.994;2022-11-15T04:27:37;13.08;;;12.07;;
8544;SDS011;4310;51.054;6.994;2022-11-15T04:28:41;12.88;;;11.97;;
8544;SDS011;4310;51.054;6.994;2022-11-15T04:31:16;12.13;;;11.28;;
8544;SDS011;4310;51.054;6.994;2022-11-15T04:32:19;13.22;;;12.33;;
8544;SDS011;4310;51.054;6.994;2022-11-15T04:33:23;13.28;;;12.25;;
8544;SDS011;4310;51.054;6.994;2022-11-15T04:34:27;13.40;;;12.53;;
8544;SDS011;4310;51.054;6.994;2022-11-15T04:35:30;13.75;;;12.85;;
8544;SDS011;4310;51.054;6.994;2022-11-15T04:36:34;13.15;;;12.25;;
8544;SDS011;4310;51.054;6.994;2022-11-15T04:37:56;14.20;;;13.22;;
8544;SDS011;4310;51.054;6.994;2022-11-15T04:39:00;13.15;;;12.25;;
8544;SDS011;4310;51.054;6.994;2022-11-15T04:40:05;14.00;;;13.00;;
8544;SDS011;4310;51.054;6.994;2022-11-15T04:41:09;13.30;;;12.20;;
8544;SDS011;4310;51.054;6.994;2022-11-15T04:42:12;13.55;;;12.65;;
8544;SDS011;4310;51.054;6.994;2022-11-15T04:43:16;13.00;;;12.15;;
8544;SDS011;4310;51.054;6.994;2022-11-15T04:44:20;13.83;;;12.80;;
8544;SDS011;4310;51.054;6.994;2022-11-15T04:45:23;13.93;;;12.93;;
8544;SDS011;4310;51.054;6.994;2022-11-15T04:46:27;12.88;;;12.07;;
8544;SDS011;4310;51.054;6.994;2022-11-15T04:47:31;12.18;;;11.38;;
8544;SDS011;4310;51.054;6.994;2022-11-15T04:48:35;12.33;;;11.43;;
8544;SDS011;4310;51.054;6.994;2022-11-15T04:49:39;12.98;;;12.07;;
8544;SDS011;4310;51.054;6.994;2022-11-15T04:50:42;13.28;;;12.37;;
8544;SDS011;4310;51.054;6.994;2022-11-15T04:51:46;13.00;;;12.00;;
8544;SDS011;4310;51.054;6.994;2022-11-15T04:52:50;12.37;;;11.55;;
8544;SDS011;4310;51.054;6.994;2022-11-15T04:53:54;13.25;;;12.28;;
8544;SDS011;4310;51.054;6.994;2022-11-15T04:54:58;13.18;;;12.20;;
8544;SDS011;4310;51.054;6.994;2022-11-15T04:56:02;13.30;;;12.43;;
8544;SDS011;4310;51.054;6.994;2022-11-15T04:57:06;12.35;;;11.45;;
8544;SDS011;4310;51.054;6.994;2022-11-15T04:58:10;12.98;;;12.13;;
8544;SDS011;4310;51.054;6.994;2022-11-15T04:59:13;12.15;;;11.28;;
8544;SDS011;4310;51.054;6.994;2022-11-15T05:00:17;12.15;;;11.35;;
8544;SDS011;4310;51.054;6.994;2022-11-15T05:01:21;11.70;;;10.90;;
8544;SDS011;4310;51.054;6.994;2022-11-15T05:02:25;11.95;;;11.15;;
8544;SDS011;4310;51.054;6.994;2022-11-15T05:03:30;12.60;;;11.70;;
8544;SDS011;4310;51.054;6.994;2022-11-15T05:04:52;12.33;;;11.43;;
8544;SDS011;4310;51.054;6.994;2022-11-15T05:07:07;12.65;;;11.85;;
8544;SDS011;4310;51.054;6.994;2022-11-15T05:08:11;12.17;;;11.30;;
8544;SDS011;4310;51.054;6.994;2022-11-15T05:09:15;12.58;;;11.68;;
8544;SDS011;4310;51.054;6.994;2022-11-15T05:10:19;12.63;;;11.83;;
8544;SDS011;4310;51.054;6.994;2022-11-15T05:11:22;13.60;;;12.60;;
8544;SDS011;4310;51.054;6.994;2022-11-15T05:13:38;12.93;;;12.13;;
8544;SDS011;4310;51.054;6.994;2022-11-15T05:14:41;13.53;;;12.63;;
8544;SDS011;4310;51.054;6.994;2022-11-15T05:15:46;13.35;;;12.40;;
8544;SDS011;4310;51.054;6.994;2022-11-15T05:16:50;13.85;;;12.85;;
8544;SDS011;4310;51.054;6.994;2022-11-15T05:17:57;13.67;;;12.70;;
8544;SDS011;4310;51.054;6.994;2022-11-15T05:19:01;14.40;;;13.40;;
8544;SDS011;4310;51.054;6.994;2022-11-15T05:20:05;15.83;;;14.63;;
8544;SDS011;4310;51.054;6.994;2022-11-15T05:22:21;16.35;;;15.15;;
8544;SDS011;4310;51.054;6.994;2022-11-15T05:23:25;17.75;;;16.50;;
8544;SDS011;4310;51.054;6.994;2022-11-15T05:24:28;19.10;;;17.60;;
8544;SDS011;4310;51.054;6.994;2022-11-15T05:25:32;19.35;;;17.95;;
8544;SDS011;4310;51.054;6.994;2022-11-15T05:26:36;19.35;;;17.98;;
8544;SDS011;4310;51.054;6.994;2022-11-15T05:27:40;19.45;;;18.12;;
8544;SDS011;4310;51.054;6.994;2022-11-15T05:28:43;19.48;;;18.05;;
8544;SDS011;4310;51.054;6.994;2022-11-15T05:29:50;18.73;;;17.23;;
8544;SDS011;4310;51.054;6.994;2022-11-15T05:30:57;18.73;;;17.42;;
8544;SDS011;4310;51.054;6.994;2022-11-15T05:31:59;18.57;;;17.17;;
8544;SDS011;4310;51.054;6.994;2022-11-15T05:33:03;16.37;;;15.28;;
8544;SDS011;4310;51.054;6.994;2022-11-15T05:35:20;16.67;;;15.58;;
8544;SDS011;4310;51.054;6.994;2022-11-15T05:36:27;16.00;;;14.90;;
8544;SDS011;4310;51.054;6.994;2022-11-15T05:37:31;16.05;;;15.05;;
8544;SDS011;4310;51.054;6.994;2022-11-15T05:38:34;15.68;;;14.78;;
8544;SDS011;4310;51.054;6.994;2022-11-15T05:39:38;15.48;;;14.58;;
8544;SDS011;4310;51.054;6.994;2022-11-15T05:40:42;14.47;;;13.58;;
8544;SDS011;4310;51.054;6.994;2022-11-15T05:41:46;14.83;;;13.83;;
8544;SDS011;4310;51.054;6.994;2022-11-15T05:42:51;14.03;;;13.22;;
8544;SDS011;4310;51.054;6.994;2022-11-15T05:43:54;15.48;;;14.58;;
8544;SDS011;4310;51.054;6.994;2022-11-15T05:44:59;13.93;;;13.03;;
8544;SDS011;4310;51.054;6.994;2022-11-15T05:46:03;14.18;;;13.28;;
8544;SDS011;4310;51.054;6.994;2022-11-15T05:47:08;15.28;;;14.28;;
8544;SDS011;4310;51.054;6.994;2022-11-15T05:48:13;14.18;;;13.38;;
8544;SDS011;4310;51.054;6.994;2022-11-15T05:49:17;13.72;;;12.93;;
8544;SDS011;4310;51.054;6.994;2022-11-15T05:50:22;14.23;;;13.32;;
8544;SDS011;4310;51.054;6.994;2022-11-15T05:51:26;13.68;;;12.88;;
8544;SDS011;4310;51.054;6.994;2022-11-15T05:52:31;13.48;;;12.68;;
8544;SDS011;4310;51.054;6.994;2022-11-15T05:53:36;13.28;;;12.58;;
8544;SDS011;4310;51.054;6.994;2022-11-15T05:54:40;13.95;;;13.15;;
8544;SDS011;4310;51.054;6.994;2022-11-15T05:55:44;14.53;;;13.55;;
8544;SDS011;4310;51.054;6.994;2022-11-15T05:56:48;13.38;;;12.60;;
8544;SDS011;4310;51.054;6.994;2022-11-15T05:57:52;13.43;;;12.73;;
8544;SDS011;4310;51.054;6.994;2022-11-15T05:58:56;15.00;;;14.10;;
8544;SDS011;4310;51.054;6.994;2022-11-15T06:00:00;14.03;;;13.25;;
8544;SDS011;4310;51.054;6.994;2022-11-15T06:01:04;14.10;;;13.40;;
8544;SDS011;4310;51.054;6.994;2022-11-15T06:02:08;15.45;;;14.55;;
8544;SDS011;4310;51.054;6.994;2022-11-15T06:04:23;15.93;;;15.03;;
8544;SDS011;4310;51.054;6.994;2022-11-15T06:05:27;16.15;;;15.25;;
8544;SDS011;4310;51.054;6.994;2022-11-15T06:06:31;17.48;;;16.48;;
8544;SDS011;4310;51.054;6.994;2022-11-15T06:07:34;17.07;;;16.15;;
8544;SDS011;4310;51.054;6.994;2022-11-15T06:08:38;18.67;;;17.67;;
8544;SDS011;4310;51.054;6.994;2022-11-15T06:09:42;19.52;;;18.52;;
8544;SDS011;4310;51.054;6.994;2022-11-15T06:10:46;20.32;;;19.23;;
8544;SDS011;4310;51.054;6.994;2022-11-15T06:13:02;21.10;;;20.00;;
8544;SDS011;4310;51.054;6.994;2022-11-15T06:14:06;22.05;;;20.75;;
8544;SDS011;4310;51.054;6.994;2022-11-15T06:15:10;21.80;;;20.70;;
8544;SDS011;4310;51.054;6.994;2022-11-15T06:16:13;21.87;;;20.85;;
8544;SDS011;4310;51.054;6.994;2022-11-15T06:17:17;22.17;;;20.95;;
8544;SDS011;4310;51.054;6.994;2022-11-15T06:18:21;21.30;;;20.27;;
8544;SDS011;4310;51.054;6.994;2022-11-15T06:19:25;21.40;;;20.20;;
8544;SDS011;4310;51.054;6.994;2022-11-15T06:20:29;22.48;;;21.27;;
8544;SDS011;4310;51.054;6.994;2022-11-15T06:21:32;22.80;;;21.68;;
8544;SDS011;4310;51.054;6.994;2022-11-15T06:22:36;23.55;;;22.40;;
8544;SDS011;4310;51.054;6.994;2022-11-15T06:23:40;22.52;;;21.40;;
8544;SDS011;4310;51.054;6.994;2022-11-15T06:24:44;22.60;;;21.57;;
8544;SDS011;4310;51.054;6.994;2022-11-15T06:25:47;23.02;;;21.93;;
8544;SDS011;4310;51.054;6.994;2022-11-15T06:26:51;24.75;;;23.50;;
8544;SDS011;4310;51.054;6.994;2022-11-15T06:27:55;23.83;;;22.52;;
8544;SDS011;4310;51.054;6.994;2022-11-15T06:28:59;24.43;;;23.32;;
8544;SDS011;4310;51.054;6.994;2022-11-15T06:30:04;24.67;;;23.40;;
8544;SDS011;4310;51.054;6.994;2022-11-15T06:31:09;26.45;;;25.05;;
8544;SDS011;4310;51.054;6.994;2022-11-15T06:32:13;25.17;;;23.87;;
8544;SDS011;4310;51.054;6.994;2022-11-15T06:33:17;25.75;;;24.43;;
8544;SDS011;4310;51.054;6.994;2022-11-15T06:34:21;27.13;;;25.90;;
8544;SDS011;4310;51.054;6.994;2022-11-15T06:35:25;27.95;;;26.57;;
8544;SDS011;4310;51.054;6.994;2022-11-15T06:36:28;27.93;;;26.62;;
8544;SDS011;4310;51.054;6.994;2022-11-15T06:38:45;27.48;;;26.17;;
8544;SDS011;4310;51.054;6.994;2022-11-15T06:39:48;27.73;;;26.33;;
8544;SDS011;4310;51.054;6.994;2022-11-15T06:42:04;27.52;;;26.23;;
8544;SDS011;4310;51.054;6.994;2022-11-15T06:43:07;26.95;;;25.65;;
8544;SDS011;4310;51.054;6.994;2022-11-15T06:44:11;28.73;;;27.42;;
8544;SDS011;4310;51.054;6.994;2022-11-15T06:45:15;28.80;;;27.40;;
8544;SDS011;4310;51.054;6.994;2022-11-15T06:47:30;27.15;;;25.85;;
8544;SDS011;4310;51.054;6.994;2022-11-15T06:49:45;28.30;;;27.00;;
8544;SDS011;4310;51.054;6.994;2022-11-15T06:52:02;26.33;;;25.12;;
8544;SDS011;4310;51.054;6.994;2022-11-15T06:53:06;26.82;;;25.50;;
8544;SDS011;4310;51.054;6.994;2022-11-15T06:54:09;26.82;;;25.62;;
8544;SDS011;4310;51.054;6.994;2022-11-15T06:55:13;26.82;;;25.62;;
8544;SDS011;4310;51.054;6.994;2022-11-15T06:56:17;25.20;;;23.80;;
8544;SDS011;4310;51.054;6.994;2022-11-15T06:57:21;24.72;;;23.60;;
8544;SDS011;4310;51.054;6.994;2022-11-15T06:58:24;25.08;;;23.98;;
8544;SDS011;4310;51.054;6.994;2022-11-15T06:59:28;23.45;;;22.35;;
8544;SDS011;4310;51.054;6.994;2022-11-15T07:00:32;24.87;;;23.77;;
8544;SDS011;4310;51.054;6.994;2022-11-15T07:01:35;24.70;;;23.47;;
8544;SDS011;4310;51.054;6.994;2022-11-15T07:02:39;24.82;;;23.62;;
8544;SDS011;4310;51.054;6.994;2022-11-15T07:03:43;25.25;;;24.05;;
8544;SDS011;4310;51.054;6.994;2022-11-15T07:04:48;24.35;;;23.15;;
8544;SDS011;4310;51.054;6.994;2022-11-15T07:05:52;25.85;;;24.65;;
8544;SDS011;4310;51.054;6.994;2022-11-15T07:06:57;24.70;;;23.50;;
8544;SDS011;4310;51.054;6.994;2022-11-15T07:08:00;23.80;;;22.70;;
8544;SDS011;4310;51.054;6.994;2022-11-15T07:09:04;24.47;;;23.27;;
8544;SDS011;4310;51.054;6.994;2022-11-15T07:10:08;24.52;;;23.20;;
8544;SDS011;4310;51.054;6.994;2022-11-15T07:11:12;23.40;;;22.13;;
8544;SDS011;4310;51.054;6.994;2022-11-15T07:13:29;27.45;;;26.05;;
8544;SDS011;4310;51.054;6.994;2022-11-15T07:14:35;26.37;;;25.12;;
8544;SDS011;4310;51.054;6.994;2022-11-15T07:15:39;28.65;;;27.27;;
8544;SDS011;4310;51.054;6.994;2022-11-15T07:16:42;28.92;;;27.42;;
8544;SDS011;4310;51.054;6.994;2022-11-15T07:17:46;28.87;;;27.30;;
8544;SDS011;4310;51.054;6.994;2022-11-15T07:18:50;29.55;;;28.15;;
8544;SDS011;4310;51.054;6.994;2022-11-15T07:19:54;29.37;;;27.98;;
8544;SDS011;4310;51.054;6.994;2022-11-15T07:21:00;29.92;;;28.52;;
8544;SDS011;4310;51.054;6.994;2022-11-15T07:22:04;27.70;;;26.30;;
8544;SDS011;4310;51.054;6.994;2022-11-15T07:23:08;26.90;;;25.60;;